createdAt,value
2018-07-30T00:00:14.581Z,85.88
2018-07-30T00:01:14.583Z,86.36
2018-07-30T00:02:14.580Z,86.41
2018-07-30T00:03:14.575Z,86.85
2018-07-30T00:04:14.578Z,86.02
2018-07-30T00:05:14.646Z,86.69
2018-07-30T00:06:14.584Z,86.94
2018-07-30T00:07:14.574Z,86.79
2018-07-30T00:08:14.573Z,86.41
2018-07-30T00:09:14.573Z,86.69
2018-07-30T00:10:14.574Z,86.22
2018-07-30T00:11:14.571Z,86.56
2018-07-30T00:12:14.570Z,86.56
2018-07-30T00:13:14.570Z,86.56
2018-07-30T00:14:14.579Z,87.90
2018-07-30T00:15:14.569Z,88.10
2018-07-30T00:16:14.568Z,86.94
2018-07-30T00:17:14.566Z,87.33
2018-07-30T00:18:14.564Z,87.62
2018-07-30T00:19:14.565Z,89.73
2018-07-30T00:20:14.557Z,89.64
2018-07-30T00:21:14.561Z,89.64
2018-07-30T00:22:14.555Z,90.07
2018-07-30T00:23:14.558Z,90.75
2018-07-30T00:24:14.561Z,90.65
2018-07-30T00:25:14.557Z,90.75
2018-07-30T00:26:14.563Z,90.36
2018-07-30T00:27:14.557Z,91.13
2018-07-30T00:28:14.555Z,90.36
2018-07-30T00:29:14.555Z,90.55
2018-07-30T00:30:14.565Z,90.36
2018-07-30T00:31:14.541Z,90.17
2018-07-30T00:32:14.547Z,90.26
2018-07-30T00:33:14.545Z,89.69
2018-07-30T00:34:14.545Z,89.54
2018-07-30T00:35:14.571Z,89.50
2018-07-30T00:36:14.572Z,89.50
2018-07-30T00:37:14.537Z,90.26
2018-07-30T00:38:14.544Z,89.50
2018-07-30T00:39:14.548Z,89.83
2018-07-30T00:40:14.538Z,89.83
2018-07-30T00:41:14.540Z,89.83
2018-07-30T00:42:14.532Z,89.54
2018-07-30T00:43:14.531Z,90.21
2018-07-30T00:44:14.532Z,90.69
2018-07-30T00:45:14.529Z,90.36
2018-07-30T00:46:14.529Z,90.45
2018-07-30T00:47:14.546Z,90.45
2018-07-30T00:48:14.579Z,91.03
2018-07-30T00:49:14.526Z,91.90
2018-07-30T00:50:14.527Z,91.80
2018-07-30T00:51:14.523Z,91.99
2018-07-30T00:52:14.519Z,92.96
2018-07-30T00:53:14.520Z,92.29
2018-07-30T00:54:14.416Z,92.47
2018-07-30T00:55:14.508Z,92.29
2018-07-30T00:56:14.519Z,92.76
2018-07-30T00:57:14.517Z,92.47
2018-07-30T00:58:14.511Z,92.29
2018-07-30T00:59:14.512Z,91.99
2018-07-30T01:00:14.506Z,91.71
2018-07-30T01:01:15.262Z,92.09
2018-07-30T01:02:14.523Z,92.38
2018-07-30T01:03:14.509Z,92.09
2018-07-30T01:04:14.503Z,92.29
2018-07-30T01:05:14.509Z,92.38
2018-07-30T01:06:14.506Z,92.57
2018-07-30T01:07:14.496Z,92.47
2018-07-30T01:08:14.502Z,92.67
2018-07-30T01:09:14.498Z,93.05
2018-07-30T01:10:14.494Z,92.96
2018-07-30T01:11:14.495Z,93.34
2018-07-30T01:12:14.494Z,93.34
2018-07-30T01:13:14.490Z,93.63
2018-07-30T01:14:14.503Z,93.34
2018-07-30T01:15:14.493Z,93.63
2018-07-30T01:16:14.496Z,94.40
2018-07-30T01:17:14.489Z,93.73
2018-07-30T01:18:14.486Z,94.01
2018-07-30T01:19:14.481Z,94.40
2018-07-30T01:20:14.480Z,94.30
2018-07-30T01:21:14.480Z,93.44
2018-07-30T01:22:14.477Z,93.15
2018-07-30T01:23:14.484Z,92.76
2018-07-30T01:24:14.474Z,92.86
2018-07-30T01:25:14.476Z,93.34
2018-07-30T01:26:14.471Z,93.34
2018-07-30T01:27:14.461Z,94.30
2018-07-30T01:28:14.468Z,93.05
2018-07-30T01:29:14.471Z,94.40
2018-07-30T01:30:14.467Z,93.34
2018-07-30T02:04:16.401Z,95.70
2018-07-30T02:05:16.368Z,95.60
2018-07-30T02:07:09.307Z,95.79
2018-07-30T02:08:09.253Z,95.89
2018-07-30T02:10:02.164Z,96.66
2018-07-30T02:11:02.154Z,96.90
2018-07-30T02:12:55.075Z,95.65
2018-07-30T02:13:55.058Z,95.60
2018-07-30T02:15:48.009Z,95.84
2018-07-30T02:16:47.990Z,96.27
2018-07-30T02:18:40.902Z,95.65
2018-07-30T02:19:40.894Z,95.98
2018-07-30T02:21:33.903Z,95.60
2018-07-30T02:22:33.779Z,95.89
2018-07-30T02:24:26.730Z,96.75
2018-07-30T02:25:26.722Z,95.98
2018-07-30T02:27:19.635Z,96.47
2018-07-30T02:28:19.616Z,98.00
2018-07-30T02:30:12.509Z,97.24
2018-07-30T02:31:12.512Z,97.19
2018-07-30T02:33:05.401Z,98.34
2018-07-30T02:34:05.383Z,98.53
2018-07-30T02:35:58.287Z,98.34
2018-07-30T02:36:58.270Z,97.52
2018-07-30T02:38:51.185Z,96.80
2018-07-30T02:39:51.167Z,96.32
2018-07-30T02:41:44.090Z,97.28
2018-07-30T02:42:44.085Z,97.47
2018-07-30T02:44:37.047Z,97.81
2018-07-30T02:45:37.036Z,97.81
2018-07-30T02:47:30.007Z,98.58
2018-07-30T02:48:29.980Z,99.15
2018-07-30T02:50:22.883Z,98.77
2018-07-30T02:51:22.878Z,99.01
2018-07-30T02:53:15.826Z,99.40
2018-07-30T02:54:15.793Z,99.40
2018-07-30T02:56:08.734Z,99.20
2018-07-30T02:57:08.715Z,99.10
2018-07-30T02:59:01.632Z,98.53
2018-07-30T03:00:01.616Z,99.01
2018-07-30T03:01:54.623Z,99.87
2018-07-30T03:02:54.601Z,99.87
2018-07-30T03:04:47.504Z,99.99
2018-07-30T03:05:47.493Z,99.97
2018-07-30T03:07:40.419Z,99.99
2018-07-30T03:08:40.396Z,99.68
2018-07-30T03:10:33.304Z,99.78
2018-07-30T03:11:33.296Z,99.99
2018-07-30T03:13:26.236Z,99.87
2018-07-30T03:14:26.214Z,99.99
2018-07-30T03:16:19.152Z,99.99
2018-07-30T03:17:19.141Z,99.99
2018-07-30T03:19:12.061Z,99.99
2018-07-30T03:20:12.049Z,99.99
2018-07-30T03:22:04.962Z,99.99
2018-07-30T03:23:04.939Z,99.99
2018-07-30T03:24:57.887Z,99.99
2018-07-30T03:25:57.874Z,99.99
2018-07-30T03:27:50.903Z,99.99
2018-07-30T03:28:50.956Z,99.99
2018-07-30T03:30:43.787Z,99.99
2018-07-30T03:31:43.779Z,99.99
2018-07-30T03:33:36.688Z,99.99
2018-07-30T03:34:36.667Z,99.99
2018-07-30T03:36:29.586Z,99.99
2018-07-30T03:37:29.573Z,99.99
2018-07-30T03:39:22.509Z,99.99
2018-07-30T03:40:22.482Z,99.99
2018-07-30T03:42:15.462Z,99.99
2018-07-30T03:43:15.393Z,99.99
2018-07-30T03:45:08.302Z,99.99
2018-07-30T03:46:08.293Z,99.99
2018-07-30T03:48:01.233Z,99.99
2018-07-30T03:49:01.200Z,99.99
2018-07-30T03:50:54.137Z,99.99
2018-07-30T03:51:54.123Z,99.99
2018-07-30T03:53:47.082Z,99.99
2018-07-30T03:54:47.078Z,99.99
2018-07-30T03:56:39.984Z,99.99
2018-07-30T03:57:39.993Z,99.99
2018-07-30T03:59:32.883Z,99.99
2018-07-30T04:00:32.869Z,99.99
2018-07-30T04:02:25.780Z,99.99
2018-07-30T04:03:25.762Z,99.99
2018-07-30T04:05:18.783Z,99.99
2018-07-30T04:06:18.821Z,99.99
2018-07-30T04:08:12.687Z,99.99
2018-07-30T04:09:12.672Z,99.99
2018-07-30T04:11:05.614Z,99.99
2018-07-30T04:12:05.602Z,99.99
2018-07-30T04:13:58.530Z,99.99
2018-07-30T04:14:58.512Z,99.99
2018-07-30T04:16:51.406Z,99.99
2018-07-30T04:17:51.394Z,99.99
2018-07-30T04:19:44.318Z,99.99
2018-07-30T04:20:44.293Z,99.99
2018-07-30T04:22:37.225Z,99.99
2018-07-30T04:23:37.194Z,99.99
2018-07-30T04:25:30.102Z,99.99
2018-07-30T04:26:30.096Z,99.99
2018-07-30T04:28:23.015Z,99.99
2018-07-30T04:29:22.996Z,99.99
2018-07-30T04:31:15.944Z,99.99
2018-07-30T04:32:15.929Z,99.99
2018-07-30T04:34:08.865Z,99.99
2018-07-30T04:35:08.845Z,99.99
2018-07-30T04:37:01.749Z,99.99
2018-07-30T04:38:01.749Z,99.99
2018-07-30T04:39:54.666Z,99.99
2018-07-30T04:40:54.663Z,99.99
2018-07-30T04:42:47.551Z,99.99
2018-07-30T04:43:47.545Z,99.99
2018-07-30T04:45:40.475Z,99.99
2018-07-30T04:46:40.432Z,99.99
2018-07-30T04:48:33.345Z,99.99
2018-07-30T04:49:33.328Z,99.99
2018-07-30T04:51:27.235Z,99.99
2018-07-30T04:52:27.225Z,99.99
2018-07-30T04:54:20.164Z,99.99
2018-07-30T04:55:20.143Z,99.99
2018-07-30T04:57:13.055Z,99.99
2018-07-30T04:58:13.050Z,99.99
2018-07-30T05:00:05.967Z,99.99
2018-07-30T05:01:05.938Z,99.99
2018-07-30T05:02:58.865Z,99.99
2018-07-30T05:03:58.845Z,99.99
2018-07-30T05:05:51.770Z,99.98
2018-07-30T05:06:51.761Z,99.99
2018-07-30T05:08:44.709Z,99.01
2018-07-30T05:09:44.690Z,98.82
2018-07-30T05:11:37.656Z,98.68
2018-07-30T05:12:37.648Z,98.68
2018-07-30T05:14:30.561Z,98.29
2018-07-30T05:15:30.545Z,98.19
2018-07-30T05:17:23.477Z,97.72
2018-07-30T05:18:23.461Z,97.72
2018-07-30T05:20:16.383Z,97.67
2018-07-30T05:21:16.369Z,98.15
2018-07-30T05:23:09.260Z,98.05
2018-07-30T05:24:09.252Z,98.82
2018-07-30T05:26:02.219Z,98.82
2018-07-30T05:27:02.198Z,98.87
2018-07-30T05:28:55.136Z,97.91
2018-07-30T05:29:55.115Z,97.91
2018-07-30T05:31:48.037Z,97.24
2018-07-30T05:32:48.036Z,97.24
2018-07-30T05:34:40.948Z,96.94
2018-07-30T05:35:40.935Z,97.04
2018-07-30T05:37:33.831Z,97.14
2018-07-30T05:38:33.832Z,96.94
2018-07-30T05:40:26.841Z,97.04
2018-07-30T05:41:26.829Z,97.04
2018-07-30T05:43:19.654Z,97.19
2018-07-30T05:44:19.645Z,97.57
2018-07-30T05:46:13.101Z,97.67
2018-07-30T05:47:13.088Z,97.14
2018-07-30T05:49:06.017Z,95.84
2018-07-30T05:50:06.038Z,95.88
2018-07-30T05:51:58.924Z,96.17
2018-07-30T05:52:58.916Z,95.83
2018-07-30T05:54:51.855Z,96.51
2018-07-30T05:55:51.841Z,95.93
2018-07-30T05:57:44.812Z,96.36
2018-07-30T05:58:44.810Z,95.50
2018-07-30T06:00:37.729Z,94.62
2018-07-30T06:01:37.713Z,94.82
2018-07-30T06:03:30.633Z,93.95
2018-07-30T06:04:30.628Z,93.56
2018-07-30T06:06:23.584Z,93.56
2018-07-30T06:07:23.569Z,93.08
2018-07-30T06:09:16.487Z,92.25
2018-07-30T06:10:16.473Z,92.35
2018-07-30T06:12:09.371Z,91.77
2018-07-30T06:13:09.372Z,92.45
2018-07-30T06:15:02.313Z,92.16
2018-07-30T06:16:02.301Z,90.91
2018-07-30T06:17:55.209Z,91.97
2018-07-30T06:18:55.204Z,92.16
2018-07-30T06:20:48.177Z,92.49
2018-07-30T06:21:48.151Z,91.72
2018-07-30T06:23:41.051Z,91.33
2018-07-30T06:24:41.046Z,91.05
2018-07-30T06:25:41.050Z,91.28
2018-07-30T06:26:41.050Z,90.90
2018-07-30T06:27:41.056Z,89.83
2018-07-30T06:28:41.054Z,89.93
2018-07-30T06:29:41.072Z,89.64
2018-07-30T06:30:41.057Z,90.03
2018-07-30T06:31:41.065Z,90.90
2018-07-30T06:32:41.065Z,91.38
2018-07-30T06:33:41.066Z,91.09
2018-07-30T06:34:41.122Z,90.12
2018-07-30T06:35:41.073Z,89.35
2018-07-30T06:36:41.131Z,89.93
2018-07-30T06:37:41.080Z,89.45
2018-07-30T06:38:41.085Z,89.01
2018-07-30T06:39:41.100Z,87.95
2018-07-30T06:40:41.092Z,87.95
2018-07-30T06:41:41.097Z,87.07
2018-07-30T06:42:41.117Z,86.82
2018-07-30T06:43:41.098Z,86.82
2018-07-30T06:44:41.104Z,86.44
2018-07-30T06:45:41.121Z,85.66
2018-07-30T06:46:41.121Z,86.15
2018-07-30T06:47:41.125Z,86.54
2018-07-30T06:48:41.121Z,87.02
2018-07-30T06:49:41.121Z,86.87
2018-07-30T06:50:41.125Z,86.00
2018-07-30T06:51:41.126Z,87.12
2018-07-30T06:52:41.135Z,87.12
2018-07-30T06:53:41.135Z,87.02
2018-07-30T06:54:41.152Z,87.12
2018-07-30T06:55:41.138Z,86.96
2018-07-30T06:56:41.144Z,86.13
2018-07-30T06:57:41.145Z,85.07
2018-07-30T06:58:41.154Z,85.17
2018-07-30T06:59:41.154Z,83.85
2018-07-30T07:00:41.213Z,83.17
2018-07-30T07:01:41.162Z,82.40
2018-07-30T07:02:41.165Z,82.10
2018-07-30T07:03:41.161Z,82.59
2018-07-30T07:04:41.172Z,82.01
2018-07-30T07:05:41.187Z,82.63
2018-07-30T07:06:41.182Z,82.73
2018-07-30T07:07:41.181Z,82.53
2018-07-30T07:08:41.198Z,82.44
2018-07-30T07:09:41.188Z,82.53
2018-07-30T07:10:41.195Z,82.34
2018-07-30T07:11:41.202Z,81.31
2018-07-30T07:12:41.203Z,81.41
2018-07-30T07:13:41.214Z,80.52
2018-07-30T07:14:41.226Z,77.84
2018-07-30T07:15:41.218Z,77.29
2018-07-30T07:16:41.251Z,76.12
2018-07-30T07:17:41.223Z,74.51
2018-07-30T07:18:41.230Z,73.44
2018-07-30T07:19:41.233Z,73.05
2018-07-30T07:20:41.307Z,73.44
2018-07-30T07:21:41.321Z,71.66
2018-07-30T07:22:41.250Z,71.78
2018-07-30T07:23:41.274Z,72.15
2018-07-30T07:24:41.296Z,71.95
2018-07-30T07:25:41.274Z,70.85
2018-07-30T07:26:41.279Z,70.78
2018-07-30T07:27:41.286Z,70.72
2018-07-30T07:28:41.300Z,69.29
2018-07-30T07:29:41.323Z,68.84
2018-07-30T07:30:41.349Z,67.96
2018-07-30T07:31:41.328Z,64.68
2018-07-30T07:32:41.337Z,63.18
2018-07-30T07:33:41.347Z,62.26
2018-07-30T07:34:41.359Z,62.23
2018-07-30T07:35:41.376Z,63.05
2018-07-30T07:36:41.385Z,62.73
2018-07-30T07:37:41.398Z,61.55
2018-07-30T07:38:41.411Z,61.55
2018-07-30T07:39:41.428Z,61.05
2018-07-30T07:40:41.435Z,59.84
2018-07-30T07:41:41.450Z,57.45
2018-07-30T07:42:41.460Z,56.03
2018-07-30T07:43:41.476Z,54.63
2018-07-30T07:44:41.490Z,55.82
2018-07-30T07:45:41.522Z,56.71
2018-07-30T07:46:41.521Z,56.21
2018-07-30T07:47:41.531Z,56.47
2018-07-30T07:48:41.551Z,54.41
2018-07-30T07:49:41.573Z,55.12
2018-07-30T07:50:41.595Z,55.26
2018-07-30T07:51:41.647Z,54.11
2018-07-30T07:52:41.626Z,54.82
2018-07-30T07:53:41.634Z,54.94
2018-07-30T07:54:41.658Z,54.19
2018-07-30T07:55:41.653Z,54.63
2018-07-30T07:56:41.668Z,53.19
2018-07-30T07:57:41.691Z,51.62
2018-07-30T07:58:41.713Z,50.76
2018-07-30T07:59:41.719Z,50.76
2018-07-30T08:00:41.736Z,51.12
2018-07-30T08:01:41.750Z,52.06
2018-07-30T08:02:41.765Z,52.37
2018-07-30T08:03:41.785Z,53.23
2018-07-30T08:04:41.795Z,52.45
2018-07-30T08:05:41.814Z,53.80
2018-07-30T08:06:41.829Z,53.53
2018-07-30T08:07:41.843Z,52.13
2018-07-30T08:08:41.897Z,50.88
2018-07-30T08:09:41.884Z,49.99
2018-07-30T08:10:41.895Z,50.71
2018-07-30T08:11:41.917Z,52.47
2018-07-30T08:12:41.928Z,51.32
2018-07-30T08:13:41.948Z,51.34
2018-07-30T08:14:41.978Z,50.39
2018-07-30T08:15:41.978Z,50.32
2018-07-30T08:16:42.014Z,50.37
2018-07-30T08:17:42.010Z,50.68
2018-07-30T08:18:42.029Z,50.49
2018-07-30T08:19:42.039Z,50.81
2018-07-30T08:20:42.118Z,50.26
2018-07-30T08:21:42.121Z,48.74
2018-07-30T08:22:42.101Z,47.80
2018-07-30T08:23:42.140Z,46.32
2018-07-30T08:24:42.133Z,47.31
2018-07-30T08:25:42.151Z,46.69
2018-07-30T08:26:42.164Z,45.73
2018-07-30T08:27:42.184Z,47.16
2018-07-30T08:28:42.203Z,47.71
2018-07-30T08:29:42.244Z,48.86
2018-07-30T08:30:42.261Z,48.67
2018-07-30T08:31:42.278Z,47.61
2018-07-30T08:32:42.281Z,48.03
2018-07-30T08:33:42.294Z,47.12
2018-07-30T08:34:42.339Z,47.71
2018-07-30T08:35:42.328Z,48.47
2018-07-30T08:36:42.366Z,46.44
2018-07-30T08:37:42.376Z,46.00
2018-07-30T08:38:42.429Z,45.65
2018-07-30T08:39:42.404Z,46.20
2018-07-30T08:40:42.456Z,45.83
2018-07-30T08:41:42.451Z,45.46
2018-07-30T08:42:42.464Z,44.42
2018-07-30T08:43:42.482Z,43.52
2018-07-30T08:44:42.523Z,43.49
2018-07-30T08:45:42.527Z,42.07
2018-07-30T08:46:42.537Z,44.20
2018-07-30T08:47:42.557Z,43.94
2018-07-30T08:48:42.598Z,43.55
2018-07-30T08:49:42.598Z,42.99
2018-07-30T08:50:42.621Z,43.33
2018-07-30T08:51:42.639Z,43.55
2018-07-30T08:52:42.656Z,43.17
2018-07-30T08:53:42.688Z,42.08
2018-07-30T08:54:42.697Z,42.13
2018-07-30T08:55:42.716Z,41.73
2018-07-30T08:56:42.740Z,41.73
2018-07-30T08:57:42.760Z,42.19
2018-07-30T08:58:42.784Z,40.90
2018-07-30T08:59:42.799Z,39.95
2018-07-30T09:00:42.841Z,40.23
2018-07-30T09:01:42.844Z,40.55
2018-07-30T09:02:42.860Z,38.80
2018-07-30T09:03:42.896Z,39.75
2018-07-30T09:04:42.901Z,40.34
2018-07-30T09:05:42.922Z,41.31
2018-07-30T09:06:42.944Z,39.14
2018-07-30T09:07:42.979Z,40.55
2018-07-30T09:08:42.999Z,41.85
2018-07-30T09:09:43.010Z,42.73
2018-07-30T09:10:43.032Z,43.70
2018-07-30T09:11:43.054Z,45.32
2018-07-30T09:12:43.165Z,44.23
2018-07-30T09:13:43.105Z,41.53
2018-07-30T09:14:43.124Z,41.33
2018-07-30T09:15:43.138Z,42.10
2018-07-30T09:16:43.163Z,41.99
2018-07-30T09:17:43.178Z,41.30
2018-07-30T09:18:43.197Z,41.95
2018-07-30T09:19:43.223Z,40.13
2018-07-30T09:20:43.240Z,40.01
2018-07-30T09:21:43.263Z,40.82
2018-07-30T09:22:43.282Z,41.94
2018-07-30T09:23:43.310Z,43.24
2018-07-30T09:24:43.340Z,41.31
2018-07-30T09:25:43.348Z,41.81
2018-07-30T09:26:43.370Z,41.73
2018-07-30T09:27:43.387Z,41.30
2018-07-30T09:28:43.417Z,41.55
2018-07-30T09:29:43.431Z,38.09
2018-07-30T09:30:43.473Z,38.96
2018-07-30T09:31:43.481Z,36.51
2018-07-30T09:32:43.608Z,35.47
2018-07-30T09:33:43.516Z,34.20
2018-07-30T09:34:43.541Z,33.97
2018-07-30T09:35:43.556Z,34.56
2018-07-30T09:36:43.582Z,36.36
2018-07-30T09:37:43.601Z,37.05
2018-07-30T09:38:43.671Z,36.58
2018-07-30T09:39:43.643Z,37.88
2018-07-30T09:40:43.665Z,36.73
2018-07-30T09:41:43.718Z,35.55
2018-07-30T09:42:43.722Z,36.55
2018-07-30T09:43:43.728Z,37.81
2018-07-30T09:44:43.778Z,41.52
2018-07-30T09:45:43.780Z,40.64
2018-07-30T09:46:43.810Z,41.47
2018-07-30T09:47:43.816Z,41.93
2018-07-30T09:48:43.843Z,42.88
2018-07-30T09:49:43.866Z,42.96
2018-07-30T09:50:43.886Z,41.93
2018-07-30T09:51:43.910Z,39.81
2018-07-30T09:52:43.930Z,40.31
2018-07-30T09:53:43.989Z,41.53
2018-07-30T09:54:43.987Z,43.51
2018-07-30T09:55:43.999Z,42.79
2018-07-30T09:56:44.020Z,41.87
2018-07-30T09:57:44.088Z,40.45
2018-07-30T09:58:44.094Z,40.69
2018-07-30T09:59:44.090Z,40.39
2018-07-30T10:00:44.121Z,40.15
2018-07-30T10:01:44.149Z,41.22
2018-07-30T10:02:44.150Z,39.26
2018-07-30T10:03:44.172Z,39.28
2018-07-30T10:04:44.189Z,38.21
2018-07-30T10:05:44.220Z,38.05
2018-07-30T10:06:44.233Z,37.32
2018-07-30T10:07:44.259Z,39.73
2018-07-30T10:08:44.286Z,41.53
2018-07-30T10:09:44.319Z,41.20
2018-07-30T10:10:44.392Z,40.63
2018-07-30T10:11:44.427Z,39.26
2018-07-30T10:12:44.394Z,40.55
2018-07-30T10:13:44.400Z,39.86
2018-07-30T10:14:44.415Z,40.55
2018-07-30T10:15:44.442Z,41.39
2018-07-30T10:16:44.467Z,39.36
2018-07-30T10:17:44.541Z,39.89
2018-07-30T10:18:44.515Z,38.37
2018-07-30T10:19:44.524Z,38.07
2018-07-30T10:20:44.546Z,39.15
2018-07-30T10:21:44.570Z,39.34
2018-07-30T10:22:44.589Z,39.94
2018-07-30T10:23:44.678Z,37.60
2018-07-30T10:24:44.629Z,36.88
2018-07-30T10:25:44.682Z,35.99
2018-07-30T10:26:44.680Z,37.62
2018-07-30T10:27:44.703Z,35.83
2018-07-30T10:28:44.719Z,36.59
2018-07-30T10:29:44.759Z,37.30
2018-07-30T10:30:44.834Z,40.03
2018-07-30T10:31:44.796Z,41.49
2018-07-30T10:32:45.428Z,40.11
2018-07-30T10:33:44.825Z,41.47
2018-07-30T10:34:44.848Z,41.45
2018-07-30T10:35:44.871Z,40.11
2018-07-30T10:36:44.891Z,40.21
2018-07-30T10:37:44.913Z,38.73
2018-07-30T10:38:44.954Z,41.39
2018-07-30T10:39:45.006Z,42.12
2018-07-30T10:40:44.984Z,42.20
2018-07-30T10:41:45.004Z,41.93
2018-07-30T10:42:45.019Z,40.55
2018-07-30T10:43:45.041Z,39.68
2018-07-30T10:44:45.072Z,38.29
2018-07-30T10:45:45.091Z,39.86
2018-07-30T10:46:45.116Z,40.09
2018-07-30T10:47:45.122Z,40.15
2018-07-30T10:48:45.146Z,38.34
2018-07-30T10:49:45.165Z,39.18
2018-07-30T10:50:45.184Z,36.42
2018-07-30T10:51:45.221Z,36.47
2018-07-30T10:52:45.228Z,35.38
2018-07-30T10:53:45.251Z,35.49
2018-07-30T10:54:45.279Z,36.46
2018-07-30T10:55:45.292Z,36.91
2018-07-30T10:56:45.309Z,36.36
2018-07-30T10:57:45.335Z,37.28
2018-07-30T10:58:45.361Z,35.81
2018-07-30T10:59:45.373Z,37.02
2018-07-30T11:00:45.406Z,38.95
2018-07-30T11:01:45.426Z,39.18
2018-07-30T11:02:45.436Z,37.01
2018-07-30T11:03:45.457Z,37.39
2018-07-30T11:04:45.498Z,37.65
2018-07-30T11:05:45.504Z,37.24
2018-07-30T11:06:45.522Z,36.66
2018-07-30T11:07:45.555Z,37.17
2018-07-30T11:08:45.580Z,34.53
2018-07-30T11:09:45.693Z,36.38
2018-07-30T11:10:45.611Z,35.77
2018-07-30T11:11:45.622Z,37.24
2018-07-30T11:12:45.649Z,34.97
2018-07-30T11:13:45.677Z,35.81
2018-07-30T11:14:45.748Z,35.77
2018-07-30T11:15:45.712Z,35.43
2018-07-30T11:16:45.741Z,36.52
2018-07-30T11:17:45.753Z,34.95
2018-07-30T11:18:45.771Z,33.89
2018-07-30T11:19:45.797Z,33.92
2018-07-30T11:20:45.813Z,33.85
2018-07-30T11:21:45.839Z,33.52
2018-07-30T11:22:45.856Z,31.66
2018-07-30T11:23:45.879Z,31.18
2018-07-30T11:24:45.896Z,32.90
2018-07-30T11:25:45.920Z,35.12
2018-07-30T11:26:45.942Z,36.98
2018-07-30T11:27:45.969Z,36.54
2018-07-30T11:28:45.981Z,35.28
2018-07-30T11:29:46.008Z,35.55
2018-07-30T11:30:46.016Z,34.99
2018-07-30T11:31:46.045Z,35.49
2018-07-30T11:32:46.079Z,34.17
2018-07-30T11:33:46.080Z,34.59
2018-07-30T11:34:46.097Z,34.06
2018-07-30T11:35:46.115Z,33.06
2018-07-30T11:36:46.159Z,33.13
2018-07-30T11:37:46.176Z,34.48
2018-07-30T11:38:46.190Z,35.57
2018-07-30T11:39:46.218Z,36.04
2018-07-30T11:40:46.212Z,35.21
2018-07-30T11:41:46.235Z,33.09
2018-07-30T11:42:46.313Z,33.98
2018-07-30T11:43:46.382Z,33.46
2018-07-30T11:44:46.295Z,32.84
2018-07-30T11:45:46.316Z,33.84
2018-07-30T11:46:46.358Z,34.79
2018-07-30T11:47:46.354Z,34.94
2018-07-30T11:48:46.432Z,34.94
2018-07-30T11:49:46.401Z,33.58
2018-07-30T11:50:46.415Z,33.89
2018-07-30T11:51:46.436Z,35.07
2018-07-30T11:52:46.453Z,33.62
2018-07-30T11:53:46.500Z,33.62
2018-07-30T11:54:46.506Z,34.12
2018-07-30T11:55:46.515Z,33.13
2018-07-30T11:56:46.539Z,32.15
2018-07-30T11:57:46.559Z,32.68
2018-07-30T11:58:46.607Z,32.65
2018-07-30T11:59:46.606Z,32.95
2018-07-30T12:00:46.619Z,33.31
2018-07-30T12:01:46.698Z,34.08
2018-07-30T12:02:46.648Z,35.12
2018-07-30T12:03:46.688Z,32.96
2018-07-30T12:04:46.704Z,33.54
2018-07-30T12:05:46.762Z,33.72
2018-07-30T12:06:46.759Z,31.74
2018-07-30T12:07:46.769Z,31.45
2018-07-30T12:08:46.836Z,32.88
2018-07-30T12:09:46.810Z,34.28
2018-07-30T12:10:46.848Z,33.34
2018-07-30T12:11:46.851Z,33.09
2018-07-30T12:12:46.884Z,33.62
2018-07-30T12:13:46.910Z,33.91
2018-07-30T12:14:46.930Z,33.95
2018-07-30T12:15:46.945Z,33.62
2018-07-30T12:16:46.947Z,31.35
2018-07-30T12:17:47.004Z,31.23
2018-07-30T12:18:47.017Z,31.09
2018-07-30T12:19:47.017Z,31.45
2018-07-30T12:20:47.073Z,31.56
2018-07-30T12:21:47.102Z,32.70
2018-07-30T12:22:47.089Z,32.89
2018-07-30T12:23:47.166Z,33.38
2018-07-30T12:24:47.158Z,32.79
2018-07-30T12:25:47.159Z,33.15
2018-07-30T12:26:47.174Z,33.34
2018-07-30T12:27:47.176Z,33.58
2018-07-30T12:28:47.205Z,33.77
2018-07-30T12:29:47.260Z,32.93
2018-07-30T12:30:47.262Z,31.44
2018-07-30T12:31:47.266Z,31.70
2018-07-30T12:32:47.262Z,33.15
2018-07-30T12:33:47.321Z,34.99
2018-07-30T12:34:47.367Z,35.66
2018-07-30T12:35:47.323Z,35.82
2018-07-30T12:36:47.337Z,37.05
2018-07-30T12:37:47.381Z,36.63
2018-07-30T12:38:47.451Z,36.92
2018-07-30T12:39:47.420Z,37.02
2018-07-30T12:40:47.422Z,39.17
2018-07-30T12:41:47.446Z,37.10
2018-07-30T12:42:47.477Z,39.07
2018-07-30T12:43:47.517Z,36.92
2018-07-30T12:44:47.513Z,37.02
2018-07-30T12:45:47.501Z,36.80
2018-07-30T12:46:47.508Z,39.17
2018-07-30T12:47:47.649Z,38.68
2018-07-30T12:48:47.557Z,36.43
2018-07-30T12:49:47.557Z,35.65
2018-07-30T12:50:47.614Z,39.25
2018-07-30T12:51:47.579Z,37.41
2018-07-30T12:52:47.588Z,37.71
2018-07-30T12:53:47.634Z,38.90
2018-07-30T12:54:47.606Z,37.90
2018-07-30T12:55:47.614Z,37.21
2018-07-30T12:56:47.682Z,39.76
2018-07-30T12:57:47.647Z,38.59
2018-07-30T12:58:47.665Z,38.12
2018-07-30T12:59:47.654Z,36.55
2018-07-30T13:00:47.670Z,36.25
2018-07-30T13:01:47.671Z,36.96
2018-07-30T13:02:48.507Z,36.74
2018-07-30T13:03:47.692Z,37.23
2018-07-30T13:04:47.697Z,38.70
2018-07-30T13:05:47.755Z,37.73
2018-07-30T13:06:47.708Z,34.96
2018-07-30T13:07:47.724Z,35.75
2018-07-30T13:08:47.748Z,37.12
2018-07-30T13:09:47.764Z,37.51
2018-07-30T13:10:47.759Z,37.51
2018-07-30T13:11:47.756Z,37.71
2018-07-30T13:12:47.770Z,37.61
2018-07-30T13:13:47.816Z,38.10
2018-07-30T13:14:47.777Z,36.92
2018-07-30T13:15:47.807Z,37.04
2018-07-30T13:16:47.817Z,35.17
2018-07-30T13:17:47.810Z,34.61
2018-07-30T13:18:47.851Z,36.27
2018-07-30T13:19:47.833Z,37.84
2018-07-30T13:20:47.825Z,35.78
2018-07-30T13:21:47.828Z,36.27
2018-07-30T13:22:47.845Z,35.39
2018-07-30T13:23:47.857Z,34.11
2018-07-30T13:24:47.859Z,34.59
2018-07-30T13:25:47.859Z,34.98
2018-07-30T13:26:47.923Z,35.66
2018-07-30T13:27:47.915Z,36.06
2018-07-30T13:28:47.924Z,35.16
2018-07-30T13:29:47.942Z,35.16
2018-07-30T13:30:47.915Z,35.94
2018-07-30T13:31:47.902Z,36.04
2018-07-30T13:32:47.976Z,35.53
2018-07-30T13:33:47.931Z,35.44
2018-07-30T13:34:47.914Z,34.96
2018-07-30T13:35:47.932Z,37.12
2018-07-30T13:36:47.943Z,36.63
2018-07-30T13:37:47.937Z,35.85
2018-07-30T13:38:47.949Z,36.63
2018-07-30T13:39:47.950Z,35.45
2018-07-30T13:40:47.960Z,34.96
2018-07-30T13:41:47.966Z,34.57
2018-07-30T13:42:48.003Z,36.92
2018-07-30T13:43:47.978Z,34.65
2018-07-30T13:44:48.016Z,35.35
2018-07-30T13:45:47.996Z,36.74
2018-07-30T13:46:48.007Z,36.16
2018-07-30T13:47:48.006Z,34.88
2018-07-30T13:48:48.024Z,34.88
2018-07-30T13:49:48.053Z,34.69
2018-07-30T13:50:48.024Z,34.67
2018-07-30T13:51:48.032Z,33.50
2018-07-30T13:52:48.036Z,33.97
2018-07-30T13:53:48.044Z,33.87
2018-07-30T13:54:48.055Z,35.93
2018-07-30T13:55:48.058Z,33.87
2018-07-30T13:56:48.070Z,34.75
2018-07-30T13:57:48.071Z,33.98
2018-07-30T13:58:48.097Z,34.84
2018-07-30T13:59:48.111Z,34.75
2018-07-30T14:00:48.101Z,34.75
2018-07-30T14:01:48.113Z,37.10
2018-07-30T14:02:48.111Z,36.24
2018-07-30T14:03:48.113Z,36.53
2018-07-30T14:04:48.118Z,36.53
2018-07-30T14:05:48.161Z,35.94
2018-07-30T14:06:48.172Z,37.43
2018-07-30T14:07:48.142Z,35.35
2018-07-30T14:08:48.147Z,37.02
2018-07-30T14:09:48.174Z,36.82
2018-07-30T14:10:48.161Z,36.72
2018-07-30T14:11:48.163Z,38.39
2018-07-30T14:12:48.233Z,38.78
2018-07-30T14:13:48.180Z,37.31
2018-07-30T14:14:48.194Z,38.21
2018-07-30T14:15:48.223Z,36.94
2018-07-30T14:16:48.206Z,36.06
2018-07-30T14:17:48.240Z,35.25
2018-07-30T14:18:48.219Z,34.57
2018-07-30T14:19:48.220Z,34.57
2018-07-30T14:20:48.230Z,35.06
2018-07-30T14:21:48.226Z,33.79
2018-07-30T14:22:48.233Z,34.86
2018-07-30T14:23:48.270Z,34.47
2018-07-30T14:24:48.251Z,34.67
2018-07-30T14:25:48.263Z,34.77
2018-07-30T14:26:48.267Z,37.12
2018-07-30T14:27:48.268Z,36.92
2018-07-30T14:28:48.277Z,35.55
2018-07-30T14:29:48.326Z,34.47
2018-07-30T14:30:48.346Z,35.16
2018-07-30T14:31:48.345Z,37.02
2018-07-30T14:32:48.306Z,36.82
2018-07-30T14:33:48.345Z,35.35
2018-07-30T14:34:48.331Z,36.53
2018-07-30T14:35:48.323Z,35.25
2018-07-30T14:36:48.397Z,34.86
2018-07-30T14:37:48.337Z,35.44
2018-07-30T14:38:48.341Z,35.91
2018-07-30T14:39:48.344Z,36.98
2018-07-30T14:40:48.352Z,36.32
2018-07-30T14:41:48.359Z,34.67
2018-07-30T14:42:48.365Z,32.51
2018-07-30T14:43:48.371Z,28.69
2018-07-30T14:44:48.377Z,28.99